Time;durP1;ratioP1;P1;durP2;ratioP2;P2;SDS_P1;SDS_P2;PMS_P1;PMS_P2;Temp;Humidity;BMP_temperature;BMP_pressure;BME280_temperature;BME280_humidity;BME280_pressure;Samples;Min_cycle;Max_cycle;Signal;HPM_P1;HPM_P2
2022/10/06 00:01:10;;;;;;;3.80;0.90;;;;;;;13.07;100.00;101623.00;5072409;28;20213;-89
2022/10/06 00:03:37;;;;;;;4.90;1.20;;;;;;;11.58;100.00;101460.66;5067720;28;20200;-86
2022/10/06 00:06:04;;;;;;;3.27;1.17;;;;;;;13.70;100.00;101766.72;5071577;28;20429;-90
2022/10/06 00:08:30;;;;;;;4.87;1.23;;;;;;;12.21;100.00;101550.44;5042807;28;20446;-81
2022/10/06 00:10:56;;;;;;;2.87;1.00;;;;;;;12.55;100.00;101603.50;5061649;28;20464;-89
2022/10/06 00:13:26;;;;;;;3.17;1.23;;;;;;;13.19;100.00;101736.44;5064924;28;20437;-86
2022/10/06 00:15:52;;;;;;;6.93;1.60;;;;;;;12.22;100.00;101549.41;5068649;28;20178;-89
2022/10/06 00:18:17;;;;;;;4.30;1.33;;;;;;;11.54;100.00;101466.41;5035543;28;20456;-86
2022/10/06 00:20:43;;;;;;;4.83;1.20;;;;;;;12.64;100.00;101649.97;5065271;28;20191;-84
2022/10/06 00:23:09;;;;;;;10.17;1.20;;;;;;;11.26;100.00;101441.28;5069109;28;20715;-86
2022/10/06 00:25:35;;;;;;;7.17;1.20;;;;;;;13.62;100.00;101855.81;5068922;28;20195;-89
2022/10/06 00:28:00;;;;;;;4.23;1.00;;;;;;;13.69;100.00;101829.75;5052672;28;20442;-87
2022/10/06 00:30:28;;;;;;;6.27;1.20;;;;;;;13.71;100.00;101841.19;5057093;28;20447;-85
2022/10/06 00:32:59;;;;;;;7.13;1.30;;;;;;;13.70;100.00;101844.91;5075632;28;20557;-90
2022/10/06 00:35:27;;;;;;;7.53;1.53;;;;;;;12.11;100.00;101584.88;5057589;28;20552;-86
2022/10/06 00:37:53;;;;;;;5.50;1.30;;;;;;;12.82;100.00;101679.97;5074706;28;20457;-89
2022/10/06 00:40:19;;;;;;;8.87;1.53;;;;;;;11.89;100.00;101568.72;5075316;28;20452;-89
2022/10/06 00:42:49;;;;;;;5.83;1.20;;;;;;;13.67;100.00;101817.50;5071110;28;20198;-86
2022/10/06 00:45:16;;;;;;;7.53;1.20;;;;;;;12.91;100.00;101702.22;5072647;28;20421;-89
2022/10/06 00:47:42;;;;;;;5.67;1.90;;;;;;;12.52;100.00;101678.44;5075822;28;20428;-88
2022/10/06 00:50:10;;;;;;;7.10;1.50;;;;;;;11.58;100.00;101536.69;5072918;28;20814;-89
2022/10/06 00:52:38;;;;;;;6.73;1.53;;;;;;;11.62;100.00;101542.53;5050913;28;20736;-86
2022/10/06 00:55:08;;;;;;;8.10;1.77;;;;;;;11.60;100.00;101520.38;5075009;28;20437;-89
2022/10/06 00:57:38;;;;;;;11.70;2.30;;;;;;;13.56;100.00;101895.16;5055903;28;20461;-87
2022/10/06 01:00:06;;;;;;;9.40;1.77;;;;;;;12.59;100.00;101690.09;5071731;28;20428;-87
2022/10/06 01:02:45;;;;;;;9.27;2.03;;;;;;;11.05;100.00;101466.19;5072444;28;20471;-84
2022/10/06 01:05:16;;;;;;;5.63;2.90;;;;;;;12.64;100.00;101715.44;5070532;28;20495;-86
2022/10/06 01:07:42;;;;;;;12.00;1.90;;;;;;;13.60;100.00;101852.50;5067818;28;20435;-84
2022/10/06 01:10:08;;;;;;;8.73;1.57;;;;;;;11.88;100.00;101612.75;5067630;28;20440;-84
2022/10/06 01:12:33;;;;;;;7.67;1.53;;;;;;;10.99;100.00;101456.19;5055129;28;20258;-86
2022/10/06 01:14:59;;;;;;;6.40;1.80;;;;;;;12.82;100.00;101803.81;5048430;28;21016;-85
2022/10/06 01:17:35;;;;;;;11.30;2.00;;;;;;;12.33;100.00;101706.78;5062648;28;20207;-87
2022/10/06 01:20:09;;;;;;;8.30;1.87;;;;;;;12.48;100.00;101739.03;5073737;28;20193;-85
2022/10/06 01:22:45;;;;;;;7.33;1.70;;;;;;;11.20;100.00;101509.16;5050892;28;20461;-86
2022/10/06 01:25:13;;;;;;;8.23;1.60;;;;;;;11.60;100.00;101590.22;5069841;28;20446;-86
2022/10/06 01:27:41;;;;;;;7.47;1.70;;;;;;;11.47;100.00;101559.50;5064537;28;20443;-84
2022/10/06 01:30:10;;;;;;;9.17;2.30;;;;;;;10.84;100.00;101465.09;5060513;28;20437;-84
2022/10/06 01:32:37;;;;;;;7.23;1.97;;;;;;;12.46;100.00;101739.22;5053002;28;20838;-84
2022/10/06 01:35:05;;;;;;;7.57;1.70;;;;;;;10.97;100.00;101493.16;5069282;28;20578;-83
2022/10/06 01:37:31;;;;;;;8.63;2.00;;;;;;;11.87;100.00;101686.34;5054219;28;20460;-83
2022/10/06 01:39:56;;;;;;;6.87;2.00;;;;;;;11.54;100.00;101670.59;5070730;28;20441;-83
2022/10/06 01:42:22;;;;;;;6.47;1.47;;;;;;;11.06;100.00;101591.38;5074347;28;20222;-86
2022/10/06 01:44:47;;;;;;;10.30;1.90;;;;;;;11.32;100.00;101623.16;5070704;28;20290;-85
2022/10/06 01:47:13;;;;;;;10.00;1.50;;;;;;;11.36;100.00;101615.53;5072411;28;20198;-82
2022/10/06 01:49:39;;;;;;;9.13;2.40;;;;;;;12.11;100.00;101765.88;5055671;28;20215;-88
2022/10/06 01:52:05;;;;;;;6.20;1.83;;;;;;;11.32;100.00;101617.78;5071473;28;20889;-87
2022/10/06 01:54:30;;;;;;;5.70;1.73;;;;;;;10.43;100.00;101435.19;5055256;28;20678;-79
2022/10/06 01:56:55;;;;;;;7.30;1.87;;;;;;;10.60;100.00;101535.94;5074575;28;20191;-83
2022/10/06 01:59:21;;;;;;;7.03;1.90;;;;;;;11.24;100.00;101642.84;5071307;28;20235;-84
2022/10/06 02:01:46;;;;;;;9.80;1.80;;;;;;;10.80;100.00;101540.78;5072155;28;20288;-83
2022/10/06 02:04:12;;;;;;;8.80;2.10;;;;;;;10.70;100.00;101549.09;5071877;28;20187;-83
2022/10/06 02:06:37;;;;;;;12.03;2.00;;;;;;;11.16;100.00;101653.66;5070907;28;20194;-86
2022/10/06 02:09:03;;;;;;;12.87;2.30;;;;;;;11.39;100.00;101693.91;5056118;28;20183;-85
2022/10/06 02:11:28;;;;;;;8.70;1.60;;;;;;;11.85;100.00;101787.00;5075004;28;20301;-83
2022/10/06 02:13:54;;;;;;;10.60;2.20;;;;;;;11.58;100.00;101734.69;5070387;28;20606;-84
2022/10/06 02:16:20;;;;;;;9.83;2.70;;;;;;;12.08;100.00;101798.53;5067735;28;20527;-85
2022/10/06 02:18:46;;;;;;;9.63;2.43;;;;;;;10.45;100.00;101561.91;5070526;28;20677;-83
2022/10/06 02:21:20;;;;;;;14.70;3.07;;;;;;;11.49;100.00;101744.69;5074236;28;20499;-83
2022/10/06 02:23:45;;;;;;;7.57;2.00;;;;;;;11.34;100.00;101700.84;5070055;28;20225;-83
2022/10/06 02:26:11;;;;;;;12.63;2.50;;;;;;;11.54;100.00;101766.47;5072332;28;20441;-80
2022/10/06 02:28:37;;;;;;;5.40;1.80;;;;;;;10.98;100.00;101645.97;5072227;28;20187;-84
2022/10/06 02:31:05;;;;;;;6.13;1.87;;;;;;;12.31;100.00;101863.00;5056386;28;20467;-80
2022/10/06 02:33:30;;;;;;;9.67;1.90;;;;;;;12.29;100.00;101913.44;5051589;28;20255;-79
2022/10/06 02:35:56;;;;;;;12.43;2.30;;;;;;;11.68;100.00;101810.50;5055234;28;20481;-81
2022/10/06 02:38:22;;;;;;;8.07;2.80;;;;;;;11.76;100.00;101845.38;5057839;28;21120;-79
2022/10/06 02:40:49;;;;;;;11.37;2.77;;;;;;;10.81;100.00;101698.09;5058116;28;20268;-85
2022/10/06 02:43:14;;;;;;;13.27;2.90;;;;;;;11.63;100.00;101808.38;5069442;28;21039;-82
2022/10/06 02:45:40;;;;;;;7.00;2.03;;;;;;;12.46;100.00;101959.88;5070889;28;20449;-81
2022/10/06 02:48:06;;;;;;;7.27;1.93;;;;;;;12.30;100.00;101935.84;5061134;28;20186;-85
2022/10/06 02:50:33;;;;;;;8.70;2.07;;;;;;;10.43;100.00;101620.25;5075600;28;20436;-82
2022/10/06 02:52:59;;;;;;;11.20;2.40;;;;;;;9.88;100.00;101556.91;5058193;28;20222;-81
2022/10/06 02:55:24;;;;;;;10.70;2.23;;;;;;;12.34;100.00;101989.06;5055320;28;20929;-84
2022/10/06 02:57:50;;;;;;;5.40;1.63;;;;;;;10.81;100.00;101741.03;5070163;28;20231;-86
2022/10/06 03:00:15;;;;;;;7.63;2.10;;;;;;;11.15;100.00;101777.38;5067310;28;20287;-81
2022/10/06 03:02:41;;;;;;;7.17;1.93;;;;;;;12.03;100.00;101895.03;5070495;28;20206;-85
2022/10/06 03:05:06;;;;;;;11.30;2.13;;;;;;;11.77;100.00;101911.53;5071671;28;20186;-88
2022/10/06 03:07:31;;;;;;;9.30;1.93;;;;;;;11.69;100.00;101893.66;5054614;28;20182;-83
2022/10/06 03:09:57;;;;;;;11.13;2.17;;;;;;;11.03;100.00;101772.44;5073533;28;20245;-84
2022/10/06 03:12:22;;;;;;;6.27;1.90;;;;;;;11.60;100.00;101894.72;5074846;28;20216;-84
2022/10/06 03:17:21;;;;;;;11.73;1.73;;;;;;;12.08;100.00;101940.22;4996125;28;20239;-72
2022/10/06 03:19:47;;;;;;;11.23;2.63;;;;;;;12.75;100.00;102074.81;5007761;28;20443;-71
2022/10/06 03:22:12;;;;;;;13.50;2.27;;;;;;;11.84;100.00;101938.56;5004851;28;20193;-72
2022/10/06 03:24:38;;;;;;;6.87;2.40;;;;;;;12.37;100.00;102021.00;4982385;28;20190;-71
2022/10/06 03:27:03;;;;;;;6.00;1.80;;;;;;;12.07;100.00;101995.88;5003219;28;20299;-72
2022/10/06 03:29:29;;;;;;;12.90;2.47;;;;;;;12.33;100.00;102048.47;4985678;28;20200;-71
2022/10/06 03:31:55;;;;;;;9.17;1.90;;;;;;;11.93;100.00;102000.16;5002509;28;20291;-72
2022/10/06 03:34:21;;;;;;;9.80;2.20;;;;;;;12.57;100.00;102091.28;5005445;28;20542;-72
2022/10/06 03:36:46;;;;;;;9.80;2.30;;;;;;;12.49;100.00;102096.75;5006200;28;20834;-72
2022/10/06 03:39:12;;;;;;;9.17;2.07;;;;;;;12.02;100.00;102024.31;5006476;28;20645;-72
2022/10/06 03:41:38;;;;;;;8.20;2.00;;;;;;;11.58;100.00;101945.13;5006368;28;20654;-72
2022/10/06 03:44:04;;;;;;;7.00;1.90;;;;;;;12.64;100.00;102135.31;4980992;28;20600;-71
2022/10/06 03:46:31;;;;;;;10.07;2.93;;;;;;;12.18;100.00;102051.09;5002171;28;20476;-72
2022/10/06 03:48:58;;;;;;;7.60;2.67;;;;;;;11.97;100.00;102035.59;4979951;28;20458;-72
2022/10/06 03:51:26;;;;;;;8.13;1.87;;;;;;;12.51;100.00;102101.94;4984375;28;20815;-72
2022/10/06 03:53:52;;;;;;;13.63;2.83;;;;;;;12.58;100.00;102129.81;4989197;28;21255;-72
2022/10/06 03:56:23;;;;;;;14.40;3.10;;;;;;;12.50;100.00;102132.56;5005696;28;20471;-71
2022/10/06 03:58:51;;;;;;;9.93;2.37;;;;;;;12.43;100.00;102108.22;4996663;28;21047;-71
2022/10/06 04:01:28;;;;;;;12.13;2.37;;;;;;;12.53;100.00;102126.84;4987891;28;20452;-72
2022/10/06 04:03:55;;;;;;;12.63;2.23;;;;;;;12.42;100.00;102115.47;5000401;28;20440;-72
2022/10/06 04:06:22;;;;;;;6.47;1.73;;;;;;;11.90;100.00;102048.09;5004728;28;20496;-72
2022/10/06 04:08:49;;;;;;;7.97;1.83;;;;;;;12.03;100.00;102034.88;5002779;28;20439;-72
2022/10/06 04:11:36;;;;;;;7.13;2.20;;;;;;;11.75;100.00;102018.44;4983242;28;20439;-72
2022/10/06 04:14:07;;;;;;;8.93;2.70;;;;;;;11.95;100.00;102062.69;4984282;28;20443;-71
2022/10/06 04:16:41;;;;;;;7.73;1.67;;;;;;;12.50;100.00;102164.84;5004732;28;20467;-72
2022/10/06 04:19:09;;;;;;;10.27;2.23;;;;;;;11.89;100.00;102066.09;4989500;28;20913;-72
2022/10/06 04:21:36;;;;;;;11.80;2.60;;;;;;;12.22;100.00;102130.41;4984972;28;20862;-72
2022/10/06 04:24:01;;;;;;;17.17;2.70;;;;;;;11.85;100.00;102058.50;5007707;28;20432;-72
2022/10/06 04:26:30;;;;;;;7.33;1.97;;;;;;;11.36;100.00;102016.59;5003327;28;20590;-72
2022/10/06 04:28:56;;;;;;;5.97;1.70;;;;;;;12.55;100.00;102181.31;5002183;28;20189;-72
2022/10/06 04:31:26;;;;;;;7.30;1.93;;;;;;;11.69;100.00;102062.97;4978360;28;20458;-72
2022/10/06 04:33:54;;;;;;;12.47;2.30;;;;;;;12.48;100.00;102191.97;5001789;28;20215;-72
2022/10/06 04:36:25;;;;;;;14.33;2.50;;;;;;;11.65;100.00;102058.94;5002202;28;20449;-71
2022/10/06 04:38:57;;;;;;;10.40;2.33;;;;;;;11.66;100.00;102084.00;4998748;28;20464;-71
2022/10/06 04:41:26;;;;;;;5.30;1.67;;;;;;;12.38;100.00;102200.28;4985501;28;20444;-72
2022/10/06 04:43:52;;;;;;;10.53;2.10;;;;;;;12.38;100.00;102215.53;5004414;28;20440;-72
2022/10/06 04:46:18;;;;;;;4.33;1.60;;;;;;;12.37;100.00;102233.56;4994851;28;20475;-72
2022/10/06 04:48:44;;;;;;;10.30;2.73;;;;;;;10.81;100.00;102018.31;5001295;28;20880;-72
2022/10/06 04:51:12;;;;;;;12.70;2.40;;;;;;;12.07;100.00;102213.72;4997145;28;20452;-72
2022/10/06 04:53:38;;;;;;;8.10;1.87;;;;;;;12.15;100.00;102242.41;4998518;28;20223;-72
2022/10/06 04:56:11;;;;;;;6.17;1.90;;;;;;;11.69;100.00;102175.84;4996276;28;21201;-72
2022/10/06 04:58:38;;;;;;;7.77;1.70;;;;;;;12.07;100.00;102258.59;4996130;28;20231;-72
2022/10/06 05:01:12;;;;;;;9.00;1.53;;;;;;;12.08;100.00;102257.56;5001827;28;20490;-72
2022/10/06 05:03:38;;;;;;;7.33;1.40;;;;;;;12.05;100.00;102239.09;5002911;28;20432;-72
2022/10/06 05:06:13;;;;;;;10.87;2.17;;;;;;;11.76;100.00;102202.88;4989925;28;20463;-73
2022/10/06 05:08:39;;;;;;;9.33;2.00;;;;;;;11.55;100.00;102173.88;4978057;28;20198;-72
2022/10/06 05:11:08;;;;;;;12.93;2.37;;;;;;;12.19;100.00;102271.47;4983805;28;20964;-72
2022/10/06 05:13:36;;;;;;;5.33;1.53;;;;;;;12.19;100.00;102279.53;4986570;28;20447;-72
2022/10/06 05:16:03;;;;;;;11.40;2.97;;;;;;;11.36;100.00;102180.47;5003557;28;20554;-72
2022/10/06 05:18:29;;;;;;;7.40;1.70;;;;;;;12.12;100.00;102301.91;5003839;28;20467;-73
2022/10/06 05:20:56;;;;;;;8.33;1.87;;;;;;;11.96;100.00;102300.13;5003235;28;20450;-73
2022/10/06 05:23:23;;;;;;;9.03;2.00;;;;;;;11.49;100.00;102272.13;5003579;28;20471;-72
2022/10/06 05:25:52;;;;;;;5.97;1.83;;;;;;;11.70;100.00;102328.03;5006071;28;20451;-72
2022/10/06 05:28:18;;;;;;;9.23;2.20;;;;;;;11.25;100.00;102200.50;4995703;28;21102;-72
2022/10/06 05:30:58;;;;;;;5.47;1.77;;;;;;;11.91;100.00;102324.00;5002007;28;20451;-71
2022/10/06 05:33:25;;;;;;;6.67;1.97;;;;;;;10.96;100.00;102182.19;4987692;28;20972;-72
2022/10/06 05:35:56;;;;;;;5.23;1.70;;;;;;;11.99;100.00;102324.00;5005365;28;20538;-73
2022/10/06 05:38:21;;;;;;;10.30;2.77;;;;;;;11.97;100.00;102321.47;4996767;28;20587;-72
2022/10/06 05:40:48;;;;;;;7.70;1.93;;;;;;;11.18;100.00;102222.81;5003731;28;20882;-71
2022/10/06 05:43:14;;;;;;;9.20;2.73;;;;;;;11.31;100.00;102258.91;4999188;28;20208;-72
2022/10/06 05:45:39;;;;;;;9.47;2.10;;;;;;;11.36;100.00;102269.13;5002090;28;20456;-73
2022/10/06 05:48:05;;;;;;;11.20;2.50;;;;;;;11.43;100.00;102264.75;5004287;28;20220;-71
2022/10/06 05:50:30;;;;;;;9.20;2.70;;;;;;;10.63;100.00;102176.81;5001871;28;20740;-72
2022/10/06 05:52:56;;;;;;;10.87;2.60;;;;;;;11.92;100.00;102376.78;5000542;28;21374;-72
2022/10/06 05:55:21;;;;;;;11.10;2.37;;;;;;;11.43;100.00;102286.25;4985138;28;20213;-72
2022/10/06 05:57:46;;;;;;;11.30;2.20;;;;;;;11.83;100.00;102367.88;5004734;28;20671;-72
2022/10/06 06:00:12;;;;;;;14.80;2.77;;;;;;;11.39;100.00;102319.81;5000127;28;20228;-72
2022/10/06 06:02:37;;;;;;;10.03;2.00;;;;;;;11.67;100.00;102368.69;4993222;28;20708;-72
2022/10/06 06:05:03;;;;;;;7.33;2.10;;;;;;;10.93;100.00;102241.59;5003771;28;20192;-72
2022/10/06 06:07:29;;;;;;;9.93;1.50;;;;;;;11.70;100.00;102386.34;5005722;28;20665;-72
2022/10/06 06:09:55;;;;;;;7.13;2.00;;;;;;;11.72;100.00;102401.28;5003825;28;20208;-73
2022/10/06 06:12:20;;;;;;;5.07;2.07;;;;;;;11.74;100.00;102393.91;5002992;28;20583;-72
2022/10/06 06:17:30;;;;;;;8.83;2.10;;;;;;;11.30;100.00;102318.16;5003715;28;20668;-72
2022/10/06 06:19:56;;;;;;;11.73;2.90;;;;;;;11.62;100.00;102357.59;5004556;28;20499;-72
2022/10/06 06:22:21;;;;;;;10.73;2.60;;;;;;;12.01;100.00;102417.97;4990046;28;20944;-72
2022/10/06 06:24:49;;;;;;;10.97;2.23;;;;;;;11.02;100.00;102275.50;5007337;28;20252;-72
2022/10/06 06:27:16;;;;;;;6.37;2.23;;;;;;;11.92;100.00;102419.81;5009179;28;20185;-72
2022/10/06 06:29:41;;;;;;;6.23;1.77;;;;;;;11.77;100.00;102427.66;4989699;28;20846;-73
2022/10/06 06:32:08;;;;;;;18.50;2.90;;;;;;;11.29;100.00;102348.72;5004451;28;20455;-72
2022/10/06 06:34:34;;;;;;;16.53;3.03;;;;;;;11.49;100.00;102417.25;4987192;28;20192;-72
2022/10/06 06:37:00;;;;;;;6.13;2.43;;;;;;;11.74;100.00;102444.13;5007644;28;20462;-73
2022/10/06 06:39:26;;;;;;;20.73;2.87;;;;;;;11.01;100.00;102324.81;5007696;28;20272;-72
2022/10/06 06:41:52;;;;;;;13.80;2.80;;;;;;;10.96;100.00;102319.09;5006215;28;20448;-73
2022/10/06 06:44:19;;;;;;;17.57;2.90;;;;;;;11.75;100.00;102460.09;4989239;28;20189;-73
2022/10/06 06:46:47;;;;;;;10.37;2.80;;;;;;;11.00;100.00;102343.81;4999971;28;23409;-72
2022/10/06 06:49:14;;;;;;;8.80;1.70;;;;;;;10.92;100.00;102317.78;5005235;28;20944;-72
2022/10/06 06:51:48;;;;;;;12.33;2.77;;;;;;;11.70;100.00;102427.50;5007355;28;20443;-72
2022/10/06 06:54:14;;;;;;;15.43;3.57;;;;;;;11.48;100.00;102379.78;4987087;28;20448;-72
2022/10/06 06:56:40;;;;;;;10.97;2.13;;;;;;;11.11;100.00;102329.19;5003218;28;20474;-73
2022/10/06 06:59:10;;;;;;;17.33;3.50;;;;;;;11.36;100.00;102398.06;5004295;28;20483;-73
2022/10/06 07:01:37;;;;;;;22.63;3.63;;;;;;;11.18;100.00;102347.19;5004592;28;20200;-73
2022/10/06 07:04:05;;;;;;;7.00;2.37;;;;;;;12.20;100.00;102468.69;5003335;28;20440;-73
2022/10/06 07:06:31;;;;;;;9.30;2.33;;;;;;;11.45;100.00;102359.44;4986101;28;21087;-72
2022/10/06 07:08:58;;;;;;;7.67;2.10;;;;;;;12.11;100.00;102473.22;4987360;28;20944;-72
2022/10/06 07:11:26;;;;;;;10.80;1.97;;;;;;;11.46;100.00;102398.75;5001536;28;20460;-72
2022/10/06 07:13:54;;;;;;;9.90;2.67;;;;;;;11.26;100.00;102371.38;4985323;28;21059;-73
2022/10/06 07:27:22;;;;;;;12.70;3.20;;;;;;;12.51;100.00;102522.63;5007821;28;20487;-72
2022/10/06 07:29:50;;;;;;;7.70;2.17;;;;;;;12.19;100.00;102456.25;4999242;28;20451;-73
2022/10/06 07:32:19;;;;;;;8.00;1.50;;;;;;;11.90;100.00;102403.84;4986822;28;20193;-72
2022/10/06 07:34:45;;;;;;;6.03;1.70;;;;;;;12.75;100.00;102526.28;5007565;28;20519;-73
2022/10/06 07:37:11;;;;;;;13.27;2.20;;;;;;;12.16;100.00;102456.59;4981693;28;20495;-73
2022/10/06 07:39:36;;;;;;;10.37;2.53;;;;;;;11.60;100.00;102348.03;5001106;28;21336;-73
2022/10/06 07:42:06;;;;;;;6.40;1.90;;;;;;;12.82;100.00;102541.59;5004309;28;20778;-72
2022/10/06 07:44:31;;;;;;;9.77;2.50;;;;;;;12.09;100.00;102409.84;5003627;28;20193;-73
2022/10/06 07:46:57;;;;;;;16.63;2.60;;;;;;;12.34;100.00;102461.78;5005535;28;20466;-72
2022/10/06 07:49:22;;;;;;;10.10;2.90;;;;;;;12.82;100.00;102525.44;5002472;28;20330;-72
2022/10/06 07:51:48;;;;;;;15.10;3.00;;;;;;;12.12;100.00;102417.56;5000762;28;20620;-72
2022/10/06 07:54:13;;;;;;;8.90;2.50;;;;;;;13.13;100.00;102565.06;5002157;28;20189;-72
2022/10/06 07:56:39;;;;;;;12.40;4.10;;;;;;;13.15;100.00;102556.81;4984512;28;20212;-72
2022/10/06 07:59:04;;;;;;;11.33;2.17;;;;;;;13.25;100.00;102561.03;4985135;28;20213;-72
2022/10/06 08:01:30;;;;;;;12.00;2.53;;;;;;;12.49;100.00;102449.28;4984557;28;20216;-72
2022/10/06 08:03:56;;;;;;;10.83;2.27;;;;;;;12.61;100.00;102485.63;5005645;28;20642;-73
2022/10/06 08:06:22;;;;;;;10.83;2.20;;;;;;;13.41;100.00;102583.53;5007034;28;20209;-72
2022/10/06 08:08:48;;;;;;;13.23;2.90;;;;;;;12.66;100.00;102447.41;4988040;28;20177;-72
2022/10/06 08:11:14;;;;;;;11.00;2.10;;;;;;;13.40;100.00;102573.78;5005563;28;20450;-72
2022/10/06 08:13:44;;;;;;;5.87;1.97;;;;;;;12.85;100.00;102491.94;5005140;28;20196;-72
2022/10/06 08:16:13;;;;;;;9.07;1.83;;;;;;;13.49;100.00;102580.78;5000872;28;20479;-72
2022/10/06 08:18:39;;;;;;;10.10;2.80;;;;;;;13.03;100.00;102511.38;4987573;28;20467;-73
2022/10/06 08:21:13;;;;;;;14.43;1.90;;;;;;;12.86;100.00;102478.28;5002625;28;20527;-72
2022/10/06 08:23:41;;;;;;;12.83;2.63;;;;;;;12.75;100.00;102475.97;5002558;28;20448;-72
2022/10/06 08:26:07;;;;;;;11.50;2.50;;;;;;;13.64;100.00;102602.47;4987299;28;20776;-72
2022/10/06 08:28:34;;;;;;;7.87;1.90;;;;;;;13.26;100.00;102527.66;4988046;28;20966;-72
2022/10/06 08:31:12;;;;;;;8.70;2.13;;;;;;;13.04;100.00;102485.28;4985646;28;20450;-72
2022/10/06 08:33:38;;;;;;;11.03;2.23;;;;;;;13.37;100.00;102547.16;4985674;28;21104;-72
2022/10/06 08:36:09;;;;;;;10.50;2.40;;;;;;;13.71;100.00;102619.59;4988109;28;20546;-73
2022/10/06 08:38:36;;;;;;;14.23;2.57;;;;;;;13.68;100.00;102606.47;5002521;28;20480;-72
2022/10/06 08:41:15;;;;;;;10.10;2.30;;;;;;;13.03;100.00;102483.63;5002542;28;20543;-73
2022/10/06 08:43:42;;;;;;;7.17;2.10;;;;;;;13.00;100.00;102478.59;5004960;28;20443;-72
2022/10/06 08:46:11;;;;;;;9.67;2.10;;;;;;;13.27;100.00;102529.34;4975596;28;20521;-73
2022/10/06 08:48:37;;;;;;;6.80;2.33;;;;;;;13.70;100.00;102574.78;5001934;28;21015;-73
2022/10/06 08:51:17;;;;;;;9.77;2.17;;;;;;;13.88;100.00;102612.28;4979831;28;20447;-73
2022/10/06 08:53:53;;;;;;;18.10;2.40;;;;;;;13.95;100.00;102634.84;4990905;28;20541;-73
2022/10/06 08:56:23;;;;;;;12.80;2.13;;;;;;;12.81;100.00;102469.03;4991273;28;20473;-73
2022/10/06 08:58:56;;;;;;;8.87;2.60;;;;;;;13.19;100.00;102517.72;5001026;28;20483;-71
2022/10/06 09:01:46;;;;;;;11.47;2.70;;;;;;;13.23;100.00;102514.50;4985695;28;20468;-72
2022/10/06 09:04:27;;;;;;;14.23;3.30;;;;;;;13.74;100.00;102571.56;5000263;28;20443;-71
2022/10/06 09:07:02;;;;;;;19.03;3.10;;;;;;;13.67;100.00;102543.63;4990317;28;20471;-72
2022/10/06 09:09:53;;;;;;;10.37;2.30;;;;;;;14.24;100.00;102651.16;4985840;28;20489;-73
2022/10/06 09:12:29;;;;;;;12.30;2.40;;;;;;;13.68;100.00;102548.00;5001211;28;20485;-72
2022/10/06 09:15:09;;;;;;;7.20;2.30;;;;;;;14.19;100.00;102604.97;5001740;28;20439;-72
2022/10/06 09:17:40;;;;;;;7.70;2.40;;;;;;;13.78;100.00;102567.50;4987358;28;20463;-73
2022/10/06 09:22:55;;;;;;;13.70;2.10;;;;;;;12.76;100.00;102375.34;5048659;28;20491;-85
2022/10/06 09:25:27;;;;;;;13.30;2.80;;;;;;;12.56;100.00;102364.16;5047987;28;20523;-81
2022/10/06 09:27:54;;;;;;;15.90;2.60;;;;;;;13.72;100.00;102533.16;5066824;28;20913;-85
2022/10/06 09:30:20;;;;;;;5.67;1.80;;;;;;;13.06;100.00;102407.84;5068016;28;20528;-86
2022/10/06 09:32:52;;;;;;;14.50;3.37;;;;;;;13.48;100.00;102538.66;5065566;28;20441;-86
2022/10/06 09:35:20;;;;;;;25.60;3.03;;;;;;;14.53;100.00;102706.34;5070574;28;20548;-84
2022/10/06 09:38:02;;;;;;;10.67;2.00;;;;;;;14.61;100.00;102671.19;5040483;28;20513;-82
2022/10/06 09:40:30;;;;;;;9.17;2.23;;;;;;;14.67;100.00;102680.44;5066583;28;20520;-79
2022/10/06 09:42:56;;;;;;;9.43;2.13;;;;;;;12.89;100.00;102404.38;5061525;28;20526;-80
2022/10/06 09:45:24;;;;;;;17.00;2.30;;;;;;;14.10;100.00;102579.09;5043371;28;20445;-79
2022/10/06 09:47:49;;;;;;;15.87;2.27;;;;;;;12.76;100.00;102401.44;5041448;28;20469;-79
2022/10/06 09:50:19;;;;;;;12.20;2.50;;;;;;;14.78;100.00;102676.44;5073851;28;20435;-81
2022/10/06 09:52:56;;;;;;;8.63;1.53;;;;;;;14.90;100.00;102677.72;5072689;28;20179;-79
2022/10/06 09:55:27;;;;;;;6.87;2.07;;;;;;;13.18;100.00;102408.28;5076215;28;20960;-89
2022/10/06 09:57:56;;;;;;;8.03;1.83;;;;;;;12.60;100.00;102326.97;5061653;28;20495;-79
2022/10/06 10:00:30;;;;;;;9.87;2.20;;;;;;;13.97;100.00;102552.72;5043350;28;20514;-85
2022/10/06 10:03:01;;;;;;;10.43;2.50;;;;;;;13.38;100.00;102486.84;5074542;28;20431;-80
2022/10/06 10:05:32;;;;;;;7.57;2.20;;;;;;;13.03;100.00;102410.91;5075425;28;20438;-79
2022/10/06 10:08:23;;;;;;;14.87;2.30;;;;;;;13.52;100.00;102486.94;5078282;28;20475;-83
2022/10/06 10:12:23;;;;;;;10.67;2.27;;;;;;;13.86;100.00;102498.34;5078897;28;20433;-82
2022/10/06 10:13:56;;;;;;;10.43;2.03;;;;;;;13.81;100.00;102460.28;5077825;28;20420;-82
2022/10/06 10:16:26;;;;;;;9.40;1.57;;;;;;;13.20;100.00;102382.84;5074589;28;20420;-80
2022/10/06 10:18:52;;;;;;;6.00;1.60;;;;;;;13.59;100.00;102476.25;5075605;28;20473;-84
2022/10/06 10:21:32;;;;;;;5.20;1.60;;;;;;;13.63;100.00;102472.19;5077635;28;20463;-84
2022/10/06 10:23:59;;;;;;;9.13;2.13;;;;;;;13.19;100.00;102366.84;5074444;28;20182;-81
2022/10/06 10:26:55;;;;;;;8.60;1.80;;;;;;;15.40;100.00;102692.41;5060736;28;20416;-78
2022/10/06 10:29:21;;;;;;;8.40;1.50;;;;;;;15.33;100.00;102700.44;5074392;28;20550;-79
2022/10/06 10:32:12;;;;;;;8.30;1.80;;;;;;;15.45;100.00;102700.81;5060201;28;20553;-80
2022/10/06 10:34:43;;;;;;;10.70;2.10;;;;;;;15.33;100.00;102716.66;5061516;28;20647;-80
2022/10/06 10:37:23;;;;;;;9.87;2.20;;;;;;;13.20;100.00;102323.56;5070494;28;20452;-84
2022/10/06 10:40:11;;;;;;;5.87;1.73;;;;;;;14.48;100.00;102522.41;5077325;28;20425;-84
2022/10/06 10:43:54;;;;;;;;;;;;;;;;;;;;;
2022/10/06 10:46:34;;;;;;;8.67;2.13;;;;;;;14.80;100.00;102569.06;5074270;28;20440;-83
2022/10/06 10:49:05;;;;;;;7.50;2.37;;;;;;;15.85;100.00;102708.63;5076065;28;20451;-80
2022/10/06 10:51:44;;;;;;;6.43;1.40;;;;;;;14.73;100.00;102566.25;5073440;28;20461;-81
2022/10/06 10:54:16;;;;;;;7.17;1.93;;;;;;;13.98;100.00;102453.72;5077801;28;20491;-79
2022/10/06 10:56:44;;;;;;;8.87;2.03;;;;;;;13.92;100.00;102441.81;5073151;28;20416;-81
2022/10/06 10:59:09;;;;;;;5.00;1.50;;;;;;;15.74;100.00;102712.69;5075684;28;20534;-82
2022/10/06 11:01:50;;;;;;;4.10;1.60;;;;;;;14.63;100.00;102534.09;5075419;28;20449;-79
2022/10/06 11:04:16;;;;;;;15.13;1.40;;;;;;;13.60;100.00;102351.25;5076021;28;20183;-81
2022/10/06 11:06:56;;;;;;;6.33;2.00;;;;;;;15.74;100.00;102718.94;5063329;28;20907;-85
2022/10/06 11:09:34;;;;;;;8.53;2.00;;;;;;;15.16;100.00;102620.53;5077652;28;20202;-86
2022/10/06 11:12:20;;;;;;;9.33;2.10;;;;;;;16.03;100.00;102726.19;5073804;28;20490;-87
2022/10/06 11:14:46;;;;;;;5.40;1.60;;;;;;;16.02;100.00;102729.88;5061670;28;20488;-84
2022/10/06 11:17:52;;;;;;;6.00;1.57;;;;;;;14.76;100.00;102521.84;5057557;28;20457;-84
2022/10/06 11:20:30;;;;;;;5.63;2.00;;;;;;;15.90;100.00;102730.56;5071797;28;20210;-78
2022/10/06 11:23:16;;;;;;;8.77;1.90;;;;;;;14.87;100.00;102549.22;5075603;28;20400;-79
2022/10/06 11:25:57;;;;;;;7.30;2.00;;;;;;;16.18;100.00;102734.25;5065936;28;20910;-82
2022/10/06 11:28:30;;;;;;;5.03;1.80;;;;;;;15.96;100.00;102644.03;5067188;28;20456;-78
2022/10/06 11:31:36;;;;;;;5.20;1.30;;;;;;;16.23;100.00;102728.28;5065686;28;20456;-85
2022/10/06 11:34:05;;;;;;;7.67;1.63;;;;;;;15.36;100.00;102629.75;5072772;28;20420;-81
2022/10/06 11:36:54;;;;;;;6.80;1.50;;;;;;;13.93;100.00;102386.81;5075721;28;20531;-84
2022/10/06 11:39:42;;;;;;;6.37;1.97;;;;;;;16.29;100.00;102722.13;5072663;28;20460;-85
2022/10/06 11:42:18;;;;;;;7.13;1.40;;;;;;;15.77;100.00;102687.97;5070789;28;20497;-85
2022/10/06 11:44:48;;;;;;;4.77;1.20;;;;;;;15.32;100.00;102560.84;5074942;28;20514;-79